Time;durP1;ratioP1;P1;durP2;ratioP2;P2;SDS_P1;SDS_P2;PMS_P1;PMS_P2;Temp;Humidity;BMP_temperature;BMP_pressure;BME280_temperature;BME280_humidity;BME280_pressure;Samples;Min_cycle;Max_cycle;Signal;HPM_P1;HPM_P2
2023/10/05 00:01:44;;;;;;;313.70;83.93;;;;;13.50;97839.00;;;;5087259;28;20496;-85
2023/10/05 00:04:41;;;;;;;313.23;84.67;;;;;13.40;97827.00;;;;5092624;28;20441;-87
2023/10/05 00:07:32;;;;;;;309.03;83.00;;;;;13.50;97833.00;;;;5088530;28;21051;-84
2023/10/05 00:10:21;;;;;;;311.27;83.63;;;;;13.40;97833.00;;;;5085648;28;20422;-84
2023/10/05 00:13:12;;;;;;;310.97;84.70;;;;;13.30;97820.00;;;;5088658;28;20447;-87
2023/10/05 00:16:02;;;;;;;325.70;92.83;;;;;13.30;97820.00;;;;5089028;28;20433;-84
2023/10/05 00:18:52;;;;;;;327.07;93.23;;;;;13.20;97820.00;;;;5087939;28;20479;-86
2023/10/05 00:21:48;;;;;;;318.83;88.93;;;;;13.10;97813.00;;;;5081840;28;20548;-84
2023/10/05 00:24:39;;;;;;;320.67;87.40;;;;;13.20;97812.00;;;;5082233;28;20461;-85
2023/10/05 00:27:29;;;;;;;316.87;85.90;;;;;12.90;97800.00;;;;5090407;28;20433;-86
2023/10/05 00:30:21;;;;;;;317.07;84.60;;;;;12.40;97809.00;;;;5093204;28;20425;-86
2023/10/05 00:33:10;;;;;;;312.60;81.90;;;;;12.30;97803.00;;;;5092584;28;20441;-86
2023/10/05 00:36:00;;;;;;;327.20;92.00;;;;;12.30;97811.00;;;;5085530;28;20417;-86
2023/10/05 00:38:49;;;;;;;325.63;90.57;;;;;12.60;97807.00;;;;5097022;28;20416;-85
2023/10/05 00:41:39;;;;;;;318.77;85.27;;;;;12.80;97801.00;;;;5089534;28;20462;-86
2023/10/05 00:44:30;;;;;;;314.00;82.33;;;;;13.00;97808.00;;;;5081524;28;20517;-87
2023/10/05 00:47:21;;;;;;;314.10;82.23;;;;;13.10;97814.00;;;;5093139;28;20433;-86
2023/10/05 00:50:11;;;;;;;324.27;89.90;;;;;12.90;97815.00;;;;5092160;28;20427;-86
2023/10/05 00:53:00;;;;;;;328.40;93.77;;;;;12.60;97808.00;;;;5091413;28;20954;-84
2023/10/05 00:55:57;;;;;;;325.67;90.93;;;;;12.60;97801.00;;;;5091854;28;20426;-85
2023/10/05 00:58:48;;;;;;;323.87;85.57;;;;;12.70;97794.00;;;;5087349;28;20436;-87
2023/10/05 01:01:58;;;;;;;329.90;89.23;;;;;12.30;97795.00;;;;5089131;28;20417;-85
2023/10/05 01:04:56;;;;;;;329.00;88.83;;;;;12.40;97800.00;;;;5088556;28;20450;-84
2023/10/05 01:07:49;;;;;;;327.53;86.93;;;;;12.80;97786.00;;;;5088535;28;20433;-86
2023/10/05 01:10:43;;;;;;;328.27;91.30;;;;;12.90;97795.00;;;;5087476;28;20434;-85
2023/10/05 01:13:33;;;;;;;326.43;90.17;;;;;12.80;97788.00;;;;5087164;28;21029;-85
2023/10/05 01:16:24;;;;;;;329.73;88.23;;;;;12.50;97792.00;;;;5090205;28;20425;-88
2023/10/05 01:19:13;;;;;;;328.60;87.87;;;;;12.40;97789.00;;;;5089608;28;20419;-85
2023/10/05 01:22:08;;;;;;;335.27;93.53;;;;;12.40;97798.00;;;;5091659;28;20472;-84
2023/10/05 01:25:00;;;;;;;326.90;89.40;;;;;12.00;97800.00;;;;5092486;28;20450;-86
2023/10/05 01:27:51;;;;;;;320.63;87.17;;;;;11.90;97781.00;;;;5087559;28;20426;-86
2023/10/05 01:30:40;;;;;;;311.00;82.17;;;;;12.00;97779.00;;;;5087537;28;20418;-86
2023/10/05 01:33:29;;;;;;;312.70;80.97;;;;;12.30;97778.00;;;;5093441;28;20453;-85
2023/10/05 01:36:19;;;;;;;315.20;81.43;;;;;12.20;97773.00;;;;5091796;28;20425;-86
2023/10/05 01:39:09;;;;;;;315.30;83.60;;;;;12.10;97772.00;;;;5088536;28;20946;-85
2023/10/05 01:42:00;;;;;;;321.40;85.50;;;;;12.00;97779.00;;;;5091057;28;20425;-85
2023/10/05 01:44:50;;;;;;;318.57;83.53;;;;;11.90;97765.00;;;;5084214;28;20453;-86
2023/10/05 01:47:39;;;;;;;315.77;80.10;;;;;11.70;97760.00;;;;5086504;28;20425;-85
2023/10/05 01:50:28;;;;;;;310.20;78.97;;;;;11.50;97752.00;;;;5091766;28;20440;-86
2023/10/05 01:53:18;;;;;;;313.90;81.47;;;;;11.30;97744.00;;;;5093524;28;20491;-85
2023/10/05 01:56:14;;;;;;;318.43;83.23;;;;;11.50;97748.00;;;;5088371;28;20434;-85
2023/10/05 01:59:06;;;;;;;324.57;87.13;;;;;11.40;97740.00;;;;5095587;28;20445;-86
2023/10/05 02:01:56;;;;;;;320.10;84.53;;;;;10.90;97747.00;;;;5090892;28;20433;-83
2023/10/05 02:04:49;;;;;;;313.77;80.60;;;;;11.40;97736.00;;;;5082835;28;20541;-85
2023/10/05 02:07:39;;;;;;;313.33;79.00;;;;;11.70;97747.00;;;;5086140;28;20494;-85
2023/10/05 02:10:32;;;;;;;312.30;81.20;;;;;11.80;97741.00;;;;5070026;28;20963;-84
2023/10/05 02:13:23;;;;;;;311.37;79.70;;;;;11.70;97745.00;;;;5085609;28;20890;-85
2023/10/05 02:16:17;;;;;;;310.07;78.67;;;;;11.70;97738.00;;;;5092299;28;21043;-84
2023/10/05 02:19:08;;;;;;;309.37;77.53;;;;;11.60;97740.00;;;;5091765;28;20461;-86
2023/10/05 02:22:02;;;;;;;318.83;84.80;;;;;11.70;97748.00;;;;5092000;28;20437;-85
2023/10/05 02:24:54;;;;;;;320.03;83.77;;;;;12.00;97755.00;;;;5086392;28;20813;-84
2023/10/05 02:27:46;;;;;;;305.87;75.87;;;;;11.90;97767.00;;;;5084674;28;20418;-85
2023/10/05 02:30:36;;;;;;;307.37;77.03;;;;;11.80;97751.00;;;;5087559;28;20434;-84
2023/10/05 02:33:28;;;;;;;312.07;79.63;;;;;11.90;97756.00;;;;5094949;28;20481;-84
2023/10/05 02:36:20;;;;;;;308.77;78.57;;;;;12.10;97756.00;;;;5094688;28;20414;-83
2023/10/05 02:39:10;;;;;;;311.50;79.07;;;;;11.90;97746.00;;;;5097690;28;21014;-86
2023/10/05 02:42:00;;;;;;;319.80;84.73;;;;;11.30;97738.00;;;;5094026;28;20430;-87
2023/10/05 02:44:49;;;;;;;306.70;76.57;;;;;11.60;97744.00;;;;5094806;28;21173;-88
2023/10/05 02:47:39;;;;;;;309.50;79.17;;;;;11.70;97754.00;;;;5089334;28;20426;-87
2023/10/05 02:50:32;;;;;;;306.57;76.93;;;;;11.50;97744.00;;;;5092490;28;20425;-86
2023/10/05 02:53:22;;;;;;;305.63;77.40;;;;;11.50;97738.00;;;;5090174;28;20472;-87
2023/10/05 02:56:27;;;;;;;303.77;74.93;;;;;11.10;97730.00;;;;5094826;28;20421;-86
2023/10/05 02:59:19;;;;;;;308.77;77.80;;;;;11.00;97740.00;;;;5086728;28;20434;-87
2023/10/05 03:02:10;;;;;;;304.57;75.70;;;;;10.80;97740.00;;;;5090976;28;20440;-87
2023/10/05 03:05:02;;;;;;;310.67;77.90;;;;;10.60;97737.00;;;;5090130;28;20453;-88
2023/10/05 03:07:53;;;;;;;311.77;80.00;;;;;10.70;97742.00;;;;5087775;28;20436;-86
2023/10/05 03:10:44;;;;;;;304.90;76.10;;;;;10.50;97754.00;;;;5086080;28;20933;-85
2023/10/05 03:13:33;;;;;;;308.00;76.20;;;;;10.90;97747.00;;;;5094155;28;20497;-87
2023/10/05 03:16:22;;;;;;;303.87;74.37;;;;;11.20;97741.00;;;;5091410;28;20430;-86
2023/10/05 03:19:14;;;;;;;305.13;75.63;;;;;11.40;97734.00;;;;5087965;28;20464;-86
2023/10/05 03:22:05;;;;;;;322.30;86.43;;;;;11.10;97751.00;;;;5078495;28;21220;-87
2023/10/05 03:24:57;;;;;;;312.03;79.83;;;;;11.20;97769.00;;;;5088821;28;20901;-86
2023/10/05 03:27:48;;;;;;;304.33;75.47;;;;;11.10;97761.00;;;;5087773;28;20426;-86
2023/10/05 03:30:37;;;;;;;306.73;76.67;;;;;10.80;97771.00;;;;5091209;28;21099;-86
2023/10/05 03:33:27;;;;;;;327.20;85.33;;;;;11.30;97751.00;;;;5093778;28;20461;-85
2023/10/05 03:36:16;;;;;;;305.43;76.80;;;;;11.40;97751.00;;;;5089147;28;20426;-87
2023/10/05 03:39:07;;;;;;;347.80;94.13;;;;;11.30;97760.00;;;;5089015;28;20846;-85
2023/10/05 03:41:58;;;;;;;312.03;79.97;;;;;11.40;97749.00;;;;5090932;28;20441;-87
2023/10/05 03:44:47;;;;;;;342.57;89.00;;;;;11.30;97748.00;;;;5088780;28;20465;-87
2023/10/05 03:47:38;;;;;;;341.77;90.33;;;;;11.20;97747.00;;;;5078481;28;20426;-87
2023/10/05 03:50:29;;;;;;;353.33;97.30;;;;;11.30;97741.00;;;;5079359;28;20444;-87
2023/10/05 03:53:18;;;;;;;341.30;88.63;;;;;11.10;97747.00;;;;5076796;28;20832;-85
2023/10/05 03:56:08;;;;;;;354.97;99.27;;;;;11.10;97748.00;;;;5092093;28;20437;-87
2023/10/05 03:59:00;;;;;;;353.53;95.77;;;;;11.20;97746.00;;;;5091359;28;20405;-88
2023/10/05 04:01:51;;;;;;;342.63;93.13;;;;;10.90;97742.00;;;;5089453;28;20477;-85
2023/10/05 04:04:42;;;;;;;349.30;100.30;;;;;10.50;97742.00;;;;5091148;28;20458;-87
2023/10/05 04:07:32;;;;;;;357.27;102.50;;;;;10.90;97750.00;;;;5084454;28;20807;-86
2023/10/05 04:10:34;;;;;;;349.87;93.80;;;;;11.10;97754.00;;;;5098994;28;20422;-88
2023/10/05 04:13:24;;;;;;;344.70;93.80;;;;;11.20;97755.00;;;;5097070;28;20453;-87
2023/10/05 04:16:21;;;;;;;346.30;92.23;;;;;11.30;97754.00;;;;5097989;28;20432;-88
2023/10/05 04:19:11;;;;;;;341.53;90.07;;;;;11.10;97755.00;;;;5094860;28;20509;-88
2023/10/05 04:22:00;;;;;;;351.80;97.37;;;;;11.00;97753.00;;;;5083845;28;20496;-86
2023/10/05 04:24:49;;;;;;;323.93;83.53;;;;;11.00;97756.00;;;;5096907;28;20481;-87
2023/10/05 04:27:40;;;;;;;344.00;92.63;;;;;10.80;97762.00;;;;5101335;28;20796;-88
2023/10/05 04:30:29;;;;;;;345.80;93.83;;;;;10.80;97759.00;;;;5086131;28;20818;-85
2023/10/05 04:33:20;;;;;;;318.73;79.23;;;;;10.20;97761.00;;;;5097628;28;20458;-86
2023/10/05 04:36:10;;;;;;;306.60;74.90;;;;;10.30;97766.00;;;;5094905;28;20433;-87
2023/10/05 04:38:59;;;;;;;312.60;79.00;;;;;10.10;97757.00;;;;5087376;28;20431;-87
2023/10/05 04:41:50;;;;;;;348.93;93.77;;;;;10.10;97766.00;;;;5092611;28;20429;-86
2023/10/05 04:44:40;;;;;;;346.47;92.30;;;;;10.00;97758.00;;;;5086577;28;20949;-82
2023/10/05 04:47:30;;;;;;;312.33;79.23;;;;;10.20;97769.00;;;;5082401;28;20796;-87
2023/10/05 04:50:21;;;;;;;314.87;80.37;;;;;10.40;97761.00;;;;5093317;28;20438;-86
2023/10/05 04:53:11;;;;;;;313.23;77.67;;;;;10.30;97769.00;;;;5096039;28;20453;-85
2023/10/05 04:56:12;;;;;;;354.03;96.90;;;;;10.40;97760.00;;;;5095091;28;20436;-88
2023/10/05 05:02:21;;;;;;;342.00;85.67;;;;;10.10;97754.00;;;;5083377;28;21532;-85
2023/10/05 05:05:34;;;;;;;320.43;82.10;;;;;10.20;97755.00;;;;5083433;28;20519;-87
2023/10/05 05:08:24;;;;;;;309.87;75.10;;;;;10.40;97753.00;;;;5094321;28;20456;-86
2023/10/05 05:11:19;;;;;;;346.73;89.83;;;;;10.40;97743.00;;;;5095694;28;20426;-87
2023/10/05 05:14:09;;;;;;;352.83;90.73;;;;;10.30;97754.00;;;;5113436;22;20491;-91
2023/10/05 05:17:04;;;;;;;353.80;91.43;;;;;10.60;97747.00;;;;5122084;27;20428;-91
2023/10/05 05:19:55;;;;;;;311.50;75.70;;;;;10.70;97747.00;;;;5108690;28;20441;-91
2023/10/05 05:22:46;;;;;;;310.27;76.50;;;;;10.70;97753.00;;;;5107406;28;20417;-91
2023/10/05 05:25:38;;;;;;;343.03;90.77;;;;;10.60;97757.00;;;;5110104;28;20417;-91
2023/10/05 05:28:29;;;;;;;342.67;90.97;;;;;10.40;97758.00;;;;5110580;28;20447;-92
2023/10/05 05:31:23;;;;;;;343.20;88.63;;;;;10.40;97759.00;;;;5109746;28;20418;-91
2023/10/05 05:34:13;;;;;;;346.33;91.73;;;;;10.50;97765.00;;;;5107781;28;20465;-90
2023/10/05 05:37:05;;;;;;;357.90;102.10;;;;;10.40;97741.00;;;;5105597;28;20436;-91
2023/10/05 05:39:55;;;;;;;346.23;89.73;;;;;10.20;97740.00;;;;5120016;28;20475;-90
2023/10/05 05:42:52;;;;;;;345.53;90.63;;;;;10.40;97738.00;;;;5123127;28;20421;-91
2023/10/05 05:45:51;;;;;;;341.77;86.47;;;;;10.70;97736.00;;;;5103871;28;20416;-91
2023/10/05 05:48:44;;;;;;;337.90;84.70;;;;;10.70;97732.00;;;;5105408;28;20525;-92
2023/10/05 05:51:33;;;;;;;342.27;89.03;;;;;10.10;97737.00;;;;5108623;28;20431;-90
2023/10/05 05:54:26;;;;;;;340.10;88.37;;;;;10.00;97737.00;;;;5107898;28;20488;-90
2023/10/05 05:57:20;;;;;;;328.40;82.77;;;;;10.20;97737.00;;;;5105295;28;20539;-90
2023/10/05 06:00:28;;;;;;;305.73;73.87;;;;;10.20;97743.00;;;;5099747;28;20488;-91
2023/10/05 06:03:32;;;;;;;306.50;73.57;;;;;10.10;97736.00;;;;5108045;28;20432;-91
2023/10/05 06:07:00;;;;;;;304.17;73.33;;;;;10.10;97728.00;;;;5105719;28;20409;-91
2023/10/05 06:09:52;;;;;;;308.07;74.60;;;;;10.50;97722.00;;;;5106690;28;20470;-90
2023/10/05 06:12:42;;;;;;;328.47;83.43;;;;;10.60;97724.00;;;;5105408;28;20440;-91
2023/10/05 06:15:47;;;;;;;346.17;95.30;;;;;10.50;97716.00;;;;5103702;28;20472;-91
2023/10/05 06:18:40;;;;;;;340.07;87.27;;;;;10.60;97725.00;;;;5107348;28;20437;-91
2023/10/05 06:21:36;;;;;;;342.47;91.93;;;;;10.50;97726.00;;;;5106312;28;20444;-92
2023/10/05 06:24:34;;;;;;;342.87;91.90;;;;;11.10;97723.00;;;;5105338;28;20414;-91
2023/10/05 06:27:31;;;;;;;343.93;90.00;;;;;11.60;97728.00;;;;5104607;28;20430;-92
2023/10/05 06:30:39;;;;;;;340.30;88.77;;;;;11.20;97731.00;;;;5102486;28;20473;-91
2023/10/05 06:33:34;;;;;;;341.37;89.80;;;;;11.40;97737.00;;;;5108365;28;20472;-90
2023/10/05 06:36:25;;;;;;;344.77;95.73;;;;;11.20;97729.00;;;;5104195;28;20463;-91
2023/10/05 06:39:15;;;;;;;347.87;95.43;;;;;11.80;97730.00;;;;5099760;28;20441;-90
2023/10/05 06:42:17;;;;;;;352.13;98.50;;;;;12.10;97729.00;;;;5099313;28;20941;-92
2023/10/05 06:45:53;;;;;;;340.00;92.33;;;;;12.60;97752.00;;;;5097897;28;20422;-92
2023/10/05 06:48:57;;;;;;;338.77;89.13;;;;;12.30;97750.00;;;;5112201;28;20456;-90
2023/10/05 06:51:55;;;;;;;340.80;93.63;;;;;12.50;97743.00;;;;5111604;28;20436;-91
2023/10/05 06:54:48;;;;;;;350.13;101.50;;;;;12.50;97754.00;;;;5110525;28;20460;-90
2023/10/05 06:57:43;;;;;;;348.80;104.13;;;;;12.80;97752.00;;;;5103613;28;20418;-91
2023/10/05 07:00:42;;;;;;;346.70;101.63;;;;;13.10;97765.00;;;;5110697;28;20432;-90
2023/10/05 07:03:32;;;;;;;312.47;82.10;;;;;13.40;97762.00;;;;5112408;28;20444;-91
2023/10/05 07:06:51;;;;;;;;;;;;;;;;;;;;;
2023/10/05 07:09:56;;;;;;;354.13;108.23;;;;;13.70;97762.00;;;;5110992;28;20511;-91
2023/10/05 07:13:08;;;;;;;353.77;114.43;;;;;13.70;97760.00;;;;5104736;28;20190;-91
2023/10/05 07:16:19;;;;;;;359.00;113.50;;;;;14.20;97762.00;;;;5106505;28;20257;-90
2023/10/05 07:19:32;;;;;;;359.37;113.67;;;;;14.10;97756.00;;;;5107009;28;20626;-91
2023/10/05 07:22:32;;;;;;;346.20;104.60;;;;;13.70;97754.00;;;;5109908;28;20203;-91
2023/10/05 07:25:41;;;;;;;350.80;105.27;;;;;14.30;97760.00;;;;5114965;28;20579;-92
2023/10/05 07:28:37;;;;;;;350.90;112.27;;;;;14.60;97768.00;;;;5119509;28;20226;-92
2023/10/05 07:31:46;;;;;;;361.60;120.50;;;;;14.90;97773.00;;;;5111563;28;20198;-91
2023/10/05 07:34:39;;;;;;;360.97;122.20;;;;;15.20;97762.00;;;;5112717;28;20209;-90
2023/10/05 07:37:37;;;;;;;357.17;117.53;;;;;15.20;97752.00;;;;5099369;28;20206;-91
2023/10/05 07:40:27;;;;;;;369.37;131.80;;;;;15.10;97758.00;;;;5096827;28;20203;-91
2023/10/05 07:43:18;;;;;;;361.93;122.03;;;;;15.20;97755.00;;;;5103073;28;20583;-90
2023/10/05 07:46:09;;;;;;;373.00;130.50;;;;;15.70;97767.00;;;;5100091;28;20259;-90
2023/10/05 07:49:00;;;;;;;367.97;134.90;;;;;15.90;97765.00;;;;5101095;28;20219;-91
2023/10/05 07:51:52;;;;;;;361.17;123.37;;;;;16.40;97768.00;;;;5102882;28;20234;-93
2023/10/05 07:54:44;;;;;;;366.97;129.13;;;;;16.70;97762.00;;;;5099664;28;20671;-91
2023/10/05 07:57:33;;;;;;;359.87;128.93;;;;;17.10;97771.00;;;;5101787;28;20195;-89
2023/10/05 08:00:28;;;;;;;365.90;138.03;;;;;16.60;97770.00;;;;5106039;28;20259;-91
2023/10/05 08:03:19;;;;;;;363.47;134.57;;;;;16.50;97754.00;;;;5101592;28;20211;-92
2023/10/05 08:06:14;;;;;;;367.33;140.43;;;;;16.90;97758.00;;;;5101862;28;20206;-91
2023/10/05 08:09:06;;;;;;;370.77;138.70;;;;;17.10;97751.00;;;;5107356;28;20303;-91
2023/10/05 08:11:57;;;;;;;367.70;143.57;;;;;17.40;97747.00;;;;5111446;28;20571;-91
2023/10/05 08:14:47;;;;;;;375.77;155.23;;;;;17.80;97751.00;;;;5105833;28;20198;-91
2023/10/05 08:17:37;;;;;;;367.27;142.53;;;;;18.20;97750.00;;;;5107093;28;20195;-91
2023/10/05 08:20:27;;;;;;;365.60;142.47;;;;;18.50;97752.00;;;;5102346;28;20226;-91
2023/10/05 08:23:16;;;;;;;376.13;159.93;;;;;18.70;97751.00;;;;5102464;28;20679;-90
2023/10/05 08:26:07;;;;;;;375.60;161.40;;;;;18.90;97745.00;;;;5103178;28;20203;-91
2023/10/05 08:29:01;;;;;;;373.17;170.47;;;;;19.20;97758.00;;;;5106457;28;20219;-92
2023/10/05 08:31:50;;;;;;;373.40;163.63;;;;;19.40;97738.00;;;;5096433;28;20207;-91
2023/10/05 08:34:41;;;;;;;382.00;189.20;;;;;19.50;97748.00;;;;5102354;28;20581;-90
2023/10/05 08:37:32;;;;;;;369.73;170.13;;;;;19.70;97745.00;;;;5103436;28;20609;-91
2023/10/05 08:43:40;;;;;;;371.63;171.60;;;;;19.60;97740.00;;;;5076338;28;20655;-91
2023/10/05 08:46:31;;;;;;;373.80;186.80;;;;;19.80;97738.00;;;;5100745;28;20202;-92
2023/10/05 08:49:20;;;;;;;377.07;190.60;;;;;19.90;97735.00;;;;5102961;28;20684;-89
2023/10/05 08:52:13;;;;;;;380.77;189.47;;;;;20.40;97734.00;;;;5103075;28;20210;-91
2023/10/05 08:55:05;;;;;;;382.00;197.67;;;;;20.30;97739.00;;;;5103669;28;20203;-90
2023/10/05 08:57:55;;;;;;;383.77;205.00;;;;;20.50;97729.00;;;;5104672;28;20254;-91
2023/10/05 09:00:45;;;;;;;372.97;190.80;;;;;20.90;97715.00;;;;5107982;28;20209;-91
2023/10/05 09:03:42;;;;;;;378.67;207.67;;;;;21.20;97708.00;;;;5102557;28;20202;-90
2023/10/05 09:06:31;;;;;;;391.10;219.17;;;;;21.60;97707.00;;;;5100439;28;20199;-92
2023/10/05 09:09:35;;;;;;;386.10;215.00;;;;;21.50;97702.00;;;;5098497;28;20222;-90
2023/10/05 09:15:37;;;;;;;379.47;222.20;;;;;21.60;97712.00;;;;5101820;28;20698;-90
2023/10/05 09:18:26;;;;;;;379.17;215.33;;;;;21.80;97714.00;;;;5105715;28;20222;-91
2023/10/05 09:21:19;;;;;;;379.97;229.17;;;;;21.80;97724.00;;;;5111683;28;20190;-90
2023/10/05 09:24:19;;;;;;;384.00;227.97;;;;;21.90;97724.00;;;;5110142;28;20203;-91
2023/10/05 09:27:12;;;;;;;400.80;254.63;;;;;22.00;97727.00;;;;5106816;28;20224;-89
2023/10/05 09:30:11;;;;;;;392.63;251.93;;;;;22.40;97722.00;;;;5104558;28;20236;-91
2023/10/05 09:33:08;;;;;;;397.57;263.07;;;;;23.00;97720.00;;;;5102777;28;20206;-91
2023/10/05 09:36:06;;;;;;;392.87;260.10;;;;;23.50;97716.00;;;;5106844;28;20588;-91
2023/10/05 09:38:59;;;;;;;390.10;266.47;;;;;23.40;97710.00;;;;5100281;28;20216;-91
2023/10/05 09:41:51;;;;;;;393.80;273.03;;;;;23.40;97707.00;;;;5108035;28;20674;-91
2023/10/05 09:44:40;;;;;;;391.30;276.47;;;;;23.50;97707.00;;;;5105176;28;20282;-91
2023/10/05 09:47:32;;;;;;;391.97;284.83;;;;;23.20;97710.00;;;;5103469;28;20207;-90
2023/10/05 09:50:24;;;;;;;387.37;271.27;;;;;23.10;97707.00;;;;5111575;28;20203;-90
2023/10/05 09:53:17;;;;;;;387.27;283.10;;;;;23.20;97728.00;;;;5106010;28;20199;-90
2023/10/05 09:56:11;;;;;;;388.67;259.73;;;;;23.00;97723.00;;;;5107825;28;20231;-91
2023/10/05 09:59:02;;;;;;;397.60;290.23;;;;;23.30;97710.00;;;;5102751;28;20219;-90
2023/10/05 10:01:53;;;;;;;392.47;285.80;;;;;23.70;97700.00;;;;5106506;28;20205;-91
2023/10/05 10:04:43;;;;;;;404.17;304.83;;;;;24.10;97714.00;;;;5120945;28;20667;-92
2023/10/05 10:07:33;;;;;;;391.67;294.30;;;;;23.70;97709.00;;;;5117895;28;20191;-91
2023/10/05 10:10:24;;;;;;;394.83;310.90;;;;;23.90;97698.00;;;;5111146;28;20210;-90
2023/10/05 10:13:14;;;;;;;399.67;299.07;;;;;23.70;97705.00;;;;5105857;28;20191;-90
2023/10/05 10:16:15;;;;;;;423.30;321.27;;;;;24.10;97707.00;;;;5097615;28;20731;-89
2023/10/05 10:19:07;;;;;;;403.90;305.30;;;;;24.40;97704.00;;;;5093191;28;20695;-91
2023/10/05 10:22:00;;;;;;;410.00;330.70;;;;;24.60;97687.00;;;;5093698;28;20740;-90
2023/10/05 10:24:56;;;;;;;453.63;348.60;;;;;24.20;97694.00;;;;5112286;22;20320;-70
2023/10/05 10:27:46;;;;;;;396.60;318.27;;;;;24.30;97688.00;;;;5012739;28;20238;-70
2023/10/05 10:30:37;;;;;;;405.33;323.37;;;;;24.40;97679.00;;;;5013234;28;20279;-70
2023/10/05 10:33:30;;;;;;;401.07;330.47;;;;;24.20;97682.00;;;;5014493;28;20853;-70
2023/10/05 10:36:23;;;;;;;402.77;329.23;;;;;23.40;97666.00;;;;5073278;22;20243;-72
2023/10/05 10:39:23;;;;;;;416.43;342.53;;;;;23.50;97672.00;;;;5070731;28;20237;-71
2023/10/05 10:42:18;;;;;;;402.20;324.33;;;;;23.00;97657.00;;;;5072570;28;20196;-71
2023/10/05 10:45:11;;;;;;;417.37;334.23;;;;;23.40;97661.00;;;;5060715;28;20230;-71
2023/10/05 10:48:04;;;;;;;402.13;318.87;;;;;24.10;97661.00;;;;5049691;28;20211;-72
2023/10/05 10:50:56;;;;;;;397.17;313.83;;;;;24.90;97647.00;;;;5052331;28;20749;-72
2023/10/05 10:53:45;;;;;;;400.57;321.27;;;;;24.80;97644.00;;;;5055622;28;20204;-71
2023/10/05 10:56:41;;;;;;;394.67;316.27;;;;;24.50;97644.00;;;;5057153;28;20284;-71
2023/10/05 10:59:41;;;;;;;404.93;347.07;;;;;23.90;97641.00;;;;5055482;28;20204;-71
2023/10/05 11:02:38;;;;;;;394.57;321.57;;;;;25.00;97642.00;;;;5067740;28;20212;-71
2023/10/05 11:05:40;;;;;;;415.90;347.50;;;;;25.20;97620.00;;;;5062361;28;20253;-73
2023/10/05 11:08:32;;;;;;;411.90;344.57;;;;;24.40;97615.00;;;;5059920;28;20211;-73
2023/10/05 11:11:23;;;;;;;409.40;359.53;;;;;24.50;97594.00;;;;5051119;28;20204;-73
2023/10/05 11:14:21;;;;;;;418.43;370.83;;;;;26.40;97599.00;;;;5050112;28;20205;-73
2023/10/05 11:17:31;;;;;;;454.47;405.60;;;;;26.50;97600.00;;;;5055302;28;20353;-73
2023/10/05 11:20:25;;;;;;;449.33;402.57;;;;;27.30;97595.00;;;;5052896;28;20215;-72
2023/10/05 11:23:16;;;;;;;460.33;412.63;;;;;27.90;97603.00;;;;5055643;28;20206;-73
2023/10/05 11:26:18;;;;;;;488.63;440.53;;;;;26.30;97607.00;;;;5036176;28;20231;-74
2023/10/05 11:29:15;;;;;;;493.87;445.43;;;;;25.90;97594.00;;;;5057741;28;20199;-72
2023/10/05 11:32:12;;;;;;;502.20;453.40;;;;;24.90;97596.00;;;;5054782;28;20203;-72
2023/10/05 11:35:05;;;;;;;487.93;439.57;;;;;26.10;97584.00;;;;5050227;28;20267;-72
2023/10/05 11:37:58;;;;;;;483.43;435.33;;;;;26.30;97573.00;;;;5053263;28;20229;-73
2023/10/05 11:40:56;;;;;;;481.17;434.03;;;;;27.80;97577.00;;;;5054056;28;20209;-72
2023/10/05 11:43:51;;;;;;;467.77;420.70;;;;;28.20;97584.00;;;;5054582;28;20211;-72
2023/10/05 11:46:46;;;;;;;500.60;452.57;;;;;27.90;97579.00;;;;5052381;28;21588;-72
2023/10/05 11:49:35;;;;;;;476.17;428.93;;;;;28.50;97572.00;;;;5051324;28;20201;-73
2023/10/05 11:52:24;;;;;;;491.97;444.73;;;;;29.30;97578.00;;;;5055693;28;20238;-72
2023/10/05 11:55:14;;;;;;;530.73;481.13;;;;;29.40;97574.00;;;;5051140;28;20756;-72
2023/10/05 11:58:08;;;;;;;548.13;498.63;;;;;27.80;97553.00;;;;5051419;28;20364;-72
2023/10/05 12:01:03;;;;;;;552.03;502.63;;;;;28.60;97554.00;;;;5046620;28;20321;-73
2023/10/05 12:03:54;;;;;;;550.67;504.53;;;;;30.00;97551.00;;;;5051379;28;20394;-72
2023/10/05 12:06:43;;;;;;;566.40;519.67;;;;;29.70;97543.00;;;;5050458;28;20422;-72
2023/10/05 12:09:34;;;;;;;591.57;544.13;;;;;31.10;97541.00;;;;5050841;28;20914;-72
2023/10/05 12:12:25;;;;;;;634.58;585.67;;;;;30.70;97538.00;;;;5049911;28;20455;-73
2023/10/05 12:15:17;;;;;;;617.35;570.15;;;;;31.40;97550.00;;;;5048349;28;21014;-73
2023/10/05 12:18:12;;;;;;;811.47;756.65;;;;;31.90;97542.00;;;;5051621;28;20459;-72
2023/10/05 12:21:02;;;;;;;867.47;810.85;;;;;31.80;97543.00;;;;5054952;28;20409;-73
2023/10/05 12:23:52;;;;;;;637.55;590.28;;;;;32.10;97534.00;;;;5048156;28;20894;-73
2023/10/05 12:26:42;;;;;;;668.43;620.70;;;;;30.40;97538.00;;;;5054097;28;20397;-72
2023/10/05 12:29:32;;;;;;;633.45;586.60;;;;;31.60;97535.00;;;;5054707;28;20401;-72
2023/10/05 12:32:24;;;;;;;631.92;583.90;;;;;31.60;97533.00;;;;5057486;28;20404;-72
2023/10/05 12:35:14;;;;;;;618.00;571.75;;;;;31.20;97542.00;;;;5073429;28;20385;-72
2023/10/05 12:38:06;;;;;;;614.05;568.17;;;;;31.10;97538.00;;;;5064576;28;20473;-72
2023/10/05 12:40:56;;;;;;;615.67;570.03;;;;;31.70;97541.00;;;;5067597;28;20403;-73
2023/10/05 12:43:45;;;;;;;606.63;561.90;;;;;31.20;97539.00;;;;5065807;28;20395;-72
2023/10/05 12:46:39;;;;;;;645.25;598.78;;;;;29.60;97548.00;;;;5064860;28;20403;-72
2023/10/05 12:49:29;;;;;;;887.78;830.00;;;;;30.90;97550.00;;;;5061571;28;21064;-72
2023/10/05 12:52:22;;;;;;;843.53;788.25;;;;;30.60;97540.00;;;;5055079;28;20423;-72
2023/10/05 12:55:11;;;;;;;679.80;630.05;;;;;29.40;97555.00;;;;5058459;28;20411;-72
2023/10/05 12:58:00;;;;;;;677.45;627.92;;;;;29.90;97546.00;;;;5054859;28;20414;-72
2023/10/05 13:00:49;;;;;;;602.60;556.22;;;;;30.00;97537.00;;;;5049794;28;20416;-72
2023/10/05 13:03:39;;;;;;;652.22;603.58;;;;;28.70;97539.00;;;;5062486;28;20415;-72
2023/10/05 13:06:29;;;;;;;809.50;755.20;;;;;30.40;97526.00;;;;5054006;28;21581;-73
2023/10/05 13:09:19;;;;;;;682.03;632.30;;;;;29.80;97532.00;;;;5065315;28;20462;-73
2023/10/05 13:12:12;;;;;;;589.30;543.75;;;;;29.00;97548.00;;;;5060865;28;20407;-72
2023/10/05 13:15:03;;;;;;;620.25;573.22;;;;;30.60;97510.00;;;;5063907;28;20760;-72
2023/10/05 13:17:56;;;;;;;591.72;546.45;;;;;30.80;97533.00;;;;5059588;28;20941;-72
2023/10/05 13:20:47;;;;;;;901.90;844.70;;;;;31.10;97543.00;;;;5059530;28;20405;-72
2023/10/05 13:23:38;;;;;;;810.15;756.55;;;;;29.70;97547.00;;;;5055776;28;20409;-72
2023/10/05 13:26:28;;;;;;;597.80;551.75;;;;;28.20;97551.00;;;;5061885;28;20402;-72
2023/10/05 13:29:18;;;;;;;545.90;501.27;;;;;27.80;97542.00;;;;5054831;28;20396;-72
2023/10/05 13:32:12;;;;;;;586.88;540.70;;;;;28.20;97539.00;;;;5071621;28;20391;-71
2023/10/05 13:35:03;;;;;;;545.60;500.38;;;;;27.80;97543.00;;;;5064055;28;20395;-72
2023/10/05 13:37:52;;;;;;;515.95;472.17;;;;;28.00;97548.00;;;;5063349;28;20404;-72
2023/10/05 13:40:57;;;;;;;569.07;522.80;;;;;26.50;97538.00;;;;5064827;28;20439;-72
2023/10/05 13:43:48;;;;;;;519.80;475.58;;;;;25.50;97546.00;;;;5065704;28;20398;-72
2023/10/05 13:46:44;;;;;;;526.22;480.45;;;;;26.10;97544.00;;;;5065393;28;20404;-72
2023/10/05 13:49:36;;;;;;;512.63;467.98;;;;;26.80;97552.00;;;;5066719;28;20748;-71
2023/10/05 13:52:26;;;;;;;497.92;453.73;;;;;26.30;97538.00;;;;5069529;28;20388;-71
2023/10/05 13:55:19;;;;;;;770.92;715.38;;;;;26.20;97542.00;;;;5066143;28;20376;-71
2023/10/05 13:58:14;;;;;;;514.88;469.95;;;;;26.10;97539.00;;;;5066080;28;20392;-71
2023/10/05 14:01:03;;;;;;;511.05;465.98;;;;;26.00;97533.00;;;;5065566;28;20414;-71